Aérodrome :
LOGIN :

S'inscrire | Disclaimer

   EN    FR    IT 

 










Légende :    VFR   VFR Marginal   IFR   IFR Intensif   IFR Très Intensif
Visi : 
Plafond : 
>= 8 km
>= 3000ft
5 à 8 km
1000 à 3000 ft
1500m à 5 km
500 à 1000 ft
800 à 1500m
200 à 500 ft
< 800m
< 200 ft
Symboles :   Orages  Brouillard  Fortes neiges  Fortes précipitations  Vent > 20 kt
SIGMETs :   Divers  Orages  Givrage  Turbulence  Onde Orograph.  Cendres Volcan.






- Altitude de l'aérodrome : 32 ft
- Code IATA : NRK


ESSP - Norrköping

DERNIER METAR :
  • 251220Z 09015KT 8000 -RASN FEW005 SCT017 BKN034 01/M01 Q0990 R27/610195

METARs EXPIRÉS :
  • 251150Z 12019KT 1400 R09/P1500N R27/P1500N SNRA SCT002 BKN010 OVC020 01/M00 Q0990 R27/09//95
  • 251120Z 09016KT 9999 VCSH FEW008 BKN020 OVC088 04/00 Q0990 R27/09//95
  • 251050Z 09016KT 9999 SCT020 BKN025 04/M00 Q0991 R27/09//95
  • 251020Z 08011KT 9999 BKN015 04/00 Q0991 R27/09//95
  • 250950Z 07010KT 9999 BKN015 03/01 Q0991 R27/09//95

TAF TAF ESSP
Valide du 25 à 12h jusqu'au 25 à 21h UTC


251130Z 2512/2521 09015KT 9999 BKN020
PROB40 2512/2514 2500 -SNRA BKN012
TEMPO 2514/2521 08015G25KT 1400 SN VV008



MET'MAP, la Météo Aéronautique d'un coup d'oeil ! - Copyright ORBIFLY Décembre 2007 - Disclaimer

ORBIFLY MET'MAP TEAM :

Programmation & Développement : Alexandra Zaïnal
Sur une idée originale de : Baudouin d'Aumeries
Assistance à la programmation : Marc-Olivier Méhu
Soutien technique & logistique : Manuel Goepfert

Contact : metmap@orbifly.com




SOURCES & CREDITS :

   NOAA